Terminal Aerodrome Forecast
Issued by NWS Wilmington, NC

Home | Current Version | Previous Version | Text Only | Print | Product List | Glossary On
Versions: 1 2 3 4 5 6 7 8 9 10 11 12 13 14 15 16 17 18 19 20 21 22 23 24 25 26 27 28 29 30 31 32 33
000
FTUS42 KILM 061409 AAC
TAFILM
TAF AMD
KILM 061409Z 0614/0712 29012KT P6SM VCSH BKN025 OVC100
     FM061700 28012G17KT P6SM VCSH SCT035 BKN045 OVC100
     FM070000 27004KT P6SM BKN050 OVC150=

USA.gov is the U.S. government's official web portal to all federal, state and local government web resources and services.